createdAt,value
2024-05-09T00:00:41.357Z,68.10
2024-05-09T00:03:10.751Z,68.10
2024-05-09T00:05:41.968Z,68.20
2024-05-09T00:08:10.407Z,68.30
2024-05-09T00:10:39.869Z,68.30
2024-05-09T00:13:08.880Z,68.40
2024-05-09T00:15:36.787Z,68.40
2024-05-09T00:18:05.596Z,68.40
2024-05-09T00:20:38.829Z,68.40
2024-05-09T00:23:12.336Z,68.40
2024-05-09T00:25:42.621Z,68.40
2024-05-09T00:28:10.008Z,68.40
2024-05-09T00:30:37.628Z,68.40
2024-05-09T00:33:06.973Z,68.50
2024-05-09T00:35:35.994Z,68.60
2024-05-09T00:38:03.764Z,68.50
2024-05-09T00:40:41.907Z,68.60
2024-05-09T00:43:12.077Z,68.70
2024-05-09T00:45:39.916Z,68.60
2024-05-09T00:48:09.546Z,68.70
2024-05-09T00:50:43.053Z,68.70
2024-05-09T00:53:15.980Z,68.80
2024-05-09T00:55:44.334Z,68.80
2024-05-09T00:58:15.333Z,68.90
2024-05-09T01:00:43.423Z,68.90
2024-05-09T01:03:14.445Z,68.90
2024-05-09T01:05:43.204Z,68.90
2024-05-09T01:08:13.201Z,68.90
2024-05-09T01:10:43.926Z,69.00
2024-05-09T01:13:12.700Z,69.10
2024-05-09T01:15:39.975Z,69.10
2024-05-09T01:18:10.537Z,69.10
2024-05-09T01:20:42.457Z,69.10
2024-05-09T01:23:12.566Z,69.10
2024-05-09T01:25:41.148Z,69.10
2024-05-09T01:28:08.730Z,69.10
2024-05-09T01:30:37.737Z,69.20
2024-05-09T01:33:08.109Z,69.30
2024-05-09T01:35:37.537Z,69.30
2024-05-09T01:38:05.091Z,69.40
2024-05-09T01:40:37.991Z,69.40
2024-05-09T01:43:08.936Z,69.40
2024-05-09T01:45:37.125Z,69.50
2024-05-09T01:48:05.789Z,69.50
2024-05-09T01:50:38.276Z,69.50
2024-05-09T01:53:13.962Z,69.60
2024-05-09T01:55:41.895Z,69.70
2024-05-09T01:58:09.659Z,69.70
2024-05-09T02:00:41.263Z,69.80
2024-05-09T02:03:14.640Z,69.90
2024-05-09T02:05:45.065Z,70.00
2024-05-09T02:08:17.865Z,70.10
2024-05-09T02:10:47.308Z,70.20
2024-05-09T02:13:15.753Z,70.20
2024-05-09T02:15:43.026Z,70.30
2024-05-09T02:18:10.774Z,70.30
2024-05-09T02:20:41.278Z,70.30
2024-05-09T02:23:09.303Z,70.40
2024-05-09T02:25:38.594Z,70.40
2024-05-09T02:28:06.327Z,70.40
2024-05-09T02:30:40.207Z,70.40
2024-05-09T02:33:12.118Z,70.40
2024-05-09T02:35:41.357Z,70.40
2024-05-09T02:38:09.725Z,70.40
2024-05-09T02:40:40.264Z,70.50
2024-05-09T02:43:10.124Z,70.50
2024-05-09T02:45:41.731Z,70.50
2024-05-09T02:48:13.715Z,70.60
2024-05-09T02:50:41.608Z,70.60
2024-05-09T02:53:09.857Z,70.60
2024-05-09T02:55:41.804Z,70.70
2024-05-09T02:58:10.347Z,70.70
2024-05-09T03:00:40.965Z,70.70
2024-05-09T03:03:13.131Z,70.60
2024-05-09T03:05:43.166Z,70.70
2024-05-09T03:08:10.576Z,70.60
2024-05-09T03:10:39.255Z,70.70
2024-05-09T03:13:13.275Z,70.70
2024-05-09T03:15:45.813Z,70.70
2024-05-09T03:18:13.574Z,70.80
2024-05-09T03:20:44.799Z,70.80
2024-05-09T03:23:12.321Z,70.80
2024-05-09T03:25:39.651Z,70.80
2024-05-09T03:28:07.423Z,70.80
2024-05-09T03:30:41.075Z,70.80
2024-05-09T03:33:19.114Z,70.80
2024-05-09T03:35:48.223Z,70.80
2024-05-09T03:38:15.904Z,70.80
2024-05-09T03:40:48.763Z,70.80
2024-05-09T03:43:16.974Z,70.70
2024-05-09T03:45:44.466Z,70.70
2024-05-09T03:48:12.252Z,70.80
2024-05-09T03:50:39.753Z,70.80
2024-05-09T03:53:10.681Z,70.90
2024-05-09T03:55:41.229Z,70.90
2024-05-09T03:58:09.001Z,70.80
2024-05-09T04:00:39.330Z,70.90
2024-05-09T04:03:10.208Z,71.00
2024-05-09T04:05:40.853Z,71.10
2024-05-09T04:08:10.975Z,71.20
2024-05-09T04:10:38.387Z,71.20
2024-05-09T04:13:05.709Z,71.40
2024-05-09T04:15:35.943Z,71.40
2024-05-09T04:18:03.385Z,71.50
2024-05-09T04:20:37.832Z,71.50
2024-05-09T04:23:11.339Z,71.60
2024-05-09T04:25:41.092Z,71.60
2024-05-09T04:28:08.127Z,71.60
2024-05-09T04:30:39.231Z,71.60
2024-05-09T04:33:11.189Z,71.60
2024-05-09T04:35:42.609Z,71.60
2024-05-09T04:38:10.517Z,71.60
2024-05-09T04:40:39.428Z,71.70
2024-05-09T04:43:07.558Z,71.80
2024-05-09T04:45:35.717Z,71.80
2024-05-09T04:48:03.796Z,71.90
2024-05-09T04:50:36.870Z,72.00
2024-05-09T04:53:10.796Z,72.00
2024-05-09T04:55:39.923Z,72.00
2024-05-09T04:58:09.533Z,72.10
2024-05-09T05:00:38.899Z,72.30
2024-05-09T05:03:14.013Z,72.40
2024-05-09T05:05:45.120Z,72.50
2024-05-09T05:08:18.546Z,72.60
2024-05-09T05:10:48.446Z,72.70
2024-05-09T05:13:23.957Z,72.70
2024-05-09T05:15:58.947Z,72.80
2024-05-09T05:18:27.873Z,72.90
2024-05-09T05:20:58.580Z,72.90
2024-05-09T05:23:25.882Z,73.00
2024-05-09T05:25:54.845Z,73.00
2024-05-09T05:28:22.436Z,73.20
2024-05-09T05:30:49.759Z,73.30
2024-05-09T05:33:23.132Z,73.40
2024-05-09T05:35:51.389Z,73.60
2024-05-09T05:38:25.041Z,73.70
2024-05-09T05:40:55.040Z,73.80
2024-05-09T05:43:22.293Z,73.80
2024-05-09T05:45:49.971Z,74.00
2024-05-09T05:48:17.936Z,74.20
2024-05-09T05:50:45.850Z,74.30
2024-05-09T05:53:13.354Z,74.30
2024-05-09T05:55:41.215Z,74.40
2024-05-09T05:58:12.632Z,74.30
2024-05-09T06:00:42.109Z,74.30
2024-05-09T06:03:11.686Z,74.30
2024-05-09T06:05:46.813Z,74.10
2024-05-09T06:08:14.664Z,73.90
2024-05-09T06:10:45.327Z,73.60
2024-05-09T06:13:14.284Z,73.50
2024-05-09T06:15:42.702Z,73.50
2024-05-09T06:18:11.561Z,73.30
2024-05-09T06:20:42.590Z,73.20
2024-05-09T06:23:11.170Z,72.90
2024-05-09T06:25:39.186Z,72.60
2024-05-09T06:28:06.729Z,72.30
2024-05-09T06:30:40.143Z,72.00
2024-05-09T06:33:11.925Z,71.90
2024-05-09T06:35:41.293Z,71.60
2024-05-09T06:38:09.556Z,71.00
2024-05-09T06:40:40.683Z,70.80
2024-05-09T06:43:13.680Z,70.50
2024-05-09T06:45:41.214Z,70.20
2024-05-09T06:48:09.582Z,70.10
2024-05-09T06:50:39.078Z,69.80
2024-05-09T06:53:10.985Z,69.70
2024-05-09T06:55:38.334Z,69.60
2024-05-09T06:58:09.525Z,69.20
2024-05-09T07:00:39.845Z,68.90
2024-05-09T07:03:18.205Z,68.70
2024-05-09T07:05:48.616Z,68.20
2024-05-09T07:08:17.543Z,68.10
2024-05-09T07:10:45.268Z,67.80
2024-05-09T07:13:14.894Z,67.70
2024-05-09T07:15:43.378Z,67.50
2024-05-09T07:18:17.310Z,67.30
2024-05-09T07:20:49.725Z,67.00
2024-05-09T07:23:18.339Z,66.40
2024-05-09T07:25:45.986Z,66.10
2024-05-09T07:28:18.008Z,65.70
2024-05-09T07:30:56.719Z,65.70
2024-05-09T07:33:33.145Z,65.80
2024-05-09T07:36:00.377Z,65.80
2024-05-09T07:38:27.505Z,65.70
2024-05-09T07:40:57.713Z,65.30
2024-05-09T07:43:24.859Z,65.30
2024-05-09T07:45:55.191Z,65.00
2024-05-09T07:52:39.284Z,64.50
2024-05-09T07:53:47.764Z,63.70
2024-05-09T07:56:20.283Z,63.60
2024-05-09T07:58:51.232Z,63.30
2024-05-09T08:01:19.752Z,63.10
2024-05-09T08:03:50.487Z,62.80
2024-05-09T08:06:18.047Z,62.50
2024-05-09T08:08:47.157Z,62.70
2024-05-09T08:11:14.371Z,62.40
2024-05-09T08:13:41.457Z,62.00
2024-05-09T08:16:09.740Z,61.40
2024-05-09T08:18:37.134Z,61.20
2024-05-09T08:21:04.616Z,60.70
2024-05-09T08:23:32.145Z,60.10
2024-05-09T08:26:02.322Z,59.80
2024-05-09T08:28:29.815Z,59.70
2024-05-09T08:30:57.256Z,59.20
2024-05-09T08:33:27.520Z,59.40
2024-05-09T08:35:55.031Z,59.30
2024-05-09T08:38:28.546Z,59.20
2024-05-09T08:40:59.310Z,58.80
2024-05-09T08:43:28.004Z,58.00
2024-05-09T08:45:56.832Z,58.10
2024-05-09T08:48:25.354Z,57.80
2024-05-09T08:50:59.558Z,58.30
2024-05-09T08:53:29.752Z,58.60
2024-05-09T08:56:01.387Z,58.70
2024-05-09T08:58:31.716Z,58.40
2024-05-09T09:01:00.754Z,58.30
2024-05-09T09:03:30.865Z,58.30
2024-05-09T09:06:07.503Z,58.10
2024-05-09T09:08:38.597Z,57.10
2024-05-09T09:11:06.185Z,56.60
2024-05-09T09:13:33.384Z,55.40
2024-05-09T09:16:02.777Z,55.50
2024-05-09T09:18:30.699Z,55.50
2024-05-09T09:21:01.075Z,54.80
2024-05-09T09:23:30.240Z,54.80
2024-05-09T09:26:00.993Z,54.40
2024-05-09T09:28:28.544Z,53.60
2024-05-09T09:31:03.370Z,52.80
2024-05-09T09:33:36.070Z,51.40
2024-05-09T09:36:04.265Z,51.30
2024-05-09T09:38:32.606Z,49.30
2024-05-09T09:41:05.278Z,49.70
2024-05-09T09:43:33.480Z,49.90
2024-05-09T09:46:02.230Z,50.30
2024-05-09T09:48:31.687Z,49.50
2024-05-09T09:50:59.720Z,48.90
2024-05-09T09:53:29.630Z,48.60
2024-05-09T09:55:59.699Z,48.30
2024-05-09T09:58:29.291Z,48.30
2024-05-09T10:00:57.013Z,47.70
2024-05-09T10:03:24.487Z,47.50
2024-05-09T10:05:54.250Z,47.60
2024-05-09T10:08:24.040Z,46.90
2024-05-09T10:10:51.692Z,47.30
2024-05-09T10:13:20.140Z,47.90
2024-05-09T10:15:51.355Z,47.70
2024-05-09T10:18:28.510Z,47.30
2024-05-09T10:21:02.566Z,46.70
2024-05-09T10:23:41.201Z,45.40
2024-05-09T10:26:08.550Z,45.80
2024-05-09T10:28:38.878Z,45.80
2024-05-09T10:31:14.429Z,45.10
2024-05-09T10:33:51.200Z,44.40
2024-05-09T10:36:23.102Z,44.70
2024-05-09T10:38:54.331Z,44.50
2024-05-09T10:41:22.692Z,44.50
2024-05-09T10:43:51.168Z,44.20
2024-05-09T10:46:21.472Z,44.70
2024-05-09T10:48:49.834Z,44.40
2024-05-09T10:51:21.962Z,44.10
2024-05-09T10:53:49.211Z,44.20
2024-05-09T10:56:17.203Z,44.30
2024-05-09T10:58:44.832Z,43.80
2024-05-09T11:01:16.352Z,43.40
2024-05-09T11:03:48.032Z,43.30
2024-05-09T11:06:16.877Z,42.90
2024-05-09T11:08:45.907Z,43.30
2024-05-09T11:11:13.432Z,43.50
2024-05-09T11:13:41.153Z,43.50
2024-05-09T11:16:19.990Z,43.70
2024-05-09T11:18:58.089Z,44.00
2024-05-09T11:21:26.173Z,44.30
2024-05-09T11:23:53.514Z,44.20
2024-05-09T11:26:22.297Z,44.00
2024-05-09T11:28:50.782Z,44.00
2024-05-09T11:31:18.556Z,44.00
2024-05-09T11:33:47.104Z,43.80
2024-05-09T11:36:15.592Z,44.10
2024-05-09T11:38:44.254Z,43.80
2024-05-09T11:41:17.676Z,43.70
2024-05-09T11:43:44.825Z,43.30
2024-05-09T11:46:12.397Z,43.80
2024-05-09T11:48:40.295Z,44.10
2024-05-09T11:51:07.657Z,44.10
2024-05-09T11:53:35.037Z,44.10
2024-05-09T11:56:02.305Z,44.10
2024-05-09T11:58:34.630Z,43.90
2024-05-09T12:01:02.416Z,44.00
2024-05-09T12:03:30.312Z,44.00
2024-05-09T12:05:58.602Z,43.10
2024-05-09T12:08:25.942Z,43.00
2024-05-09T12:10:53.843Z,43.00
2024-05-09T12:13:21.599Z,43.00
2024-05-09T12:15:48.978Z,43.10
2024-05-09T12:18:16.281Z,43.00
2024-05-09T12:20:43.675Z,42.90
2024-05-09T12:23:10.915Z,42.80
2024-05-09T12:25:39.758Z,42.90
2024-05-09T12:28:10.696Z,43.20
2024-05-09T12:30:40.322Z,42.80
2024-05-09T12:33:13.034Z,42.70
2024-05-09T12:35:44.235Z,42.70
2024-05-09T12:38:15.065Z,42.30
2024-05-09T12:40:42.749Z,42.30
2024-05-09T12:43:11.159Z,42.50
2024-05-09T12:45:39.585Z,42.90
2024-05-09T12:48:12.137Z,42.30
2024-05-09T12:50:40.450Z,42.40
2024-05-09T12:53:09.369Z,42.30
2024-05-09T12:55:44.306Z,42.40
2024-05-09T12:58:22.209Z,42.80
2024-05-09T13:00:51.515Z,43.10
2024-05-09T13:03:19.055Z,43.00
2024-05-09T13:05:46.726Z,43.10
2024-05-09T13:08:14.370Z,43.20
2024-05-09T13:10:44.239Z,43.20
2024-05-09T13:13:11.585Z,43.10
2024-05-09T13:15:39.374Z,43.30
2024-05-09T13:18:10.108Z,43.30
2024-05-09T13:20:37.396Z,43.50
2024-05-09T13:23:07.235Z,43.20
2024-05-09T13:25:35.516Z,43.30
2024-05-09T13:28:03.930Z,43.00
2024-05-09T13:30:39.166Z,43.00
2024-05-09T13:33:13.684Z,42.40
2024-05-09T13:35:46.842Z,42.40
2024-05-09T13:38:17.872Z,42.40
2024-05-09T13:40:45.359Z,42.60
2024-05-09T13:43:12.754Z,42.70
2024-05-09T13:45:41.993Z,43.00
2024-05-09T13:48:10.640Z,43.40
2024-05-09T13:50:39.121Z,43.60
2024-05-09T13:53:07.706Z,43.90
2024-05-09T13:55:40.174Z,44.00
2024-05-09T13:58:08.703Z,44.20
2024-05-09T14:00:45.044Z,44.20
2024-05-09T14:03:17.952Z,44.20
2024-05-09T14:05:47.695Z,44.40
2024-05-09T14:08:15.899Z,44.70
2024-05-09T14:10:46.603Z,44.90
2024-05-09T14:13:14.841Z,45.00
2024-05-09T14:15:42.563Z,45.10
2024-05-09T14:18:13.982Z,45.20
2024-05-09T14:20:42.592Z,45.10
2024-05-09T14:23:10.764Z,45.10
2024-05-09T14:25:42.345Z,45.20
2024-05-09T14:28:11.947Z,45.40
2024-05-09T14:30:41.135Z,45.60
2024-05-09T14:33:09.315Z,45.60
2024-05-09T14:35:38.703Z,46.00
2024-05-09T14:38:07.815Z,46.00
2024-05-09T14:40:41.693Z,45.60
2024-05-09T14:43:13.101Z,45.80
2024-05-09T14:45:41.534Z,45.40
2024-05-09T14:48:09.683Z,45.00
2024-05-09T14:50:39.431Z,45.40
2024-05-09T14:53:12.655Z,45.40
2024-05-09T14:55:42.154Z,44.80
2024-05-09T14:58:11.414Z,44.70
2024-05-09T15:00:46.117Z,44.50
2024-05-09T15:03:17.397Z,44.10
2024-05-09T15:05:45.325Z,44.20
2024-05-09T15:08:12.798Z,44.20
2024-05-09T15:10:40.370Z,44.30
2024-05-09T15:13:09.802Z,44.80
2024-05-09T15:15:38.641Z,45.40
2024-05-09T15:18:06.382Z,46.10
2024-05-09T15:20:36.647Z,46.50
2024-05-09T15:23:06.610Z,46.60
2024-05-09T15:25:36.322Z,46.70
2024-05-09T15:28:04.827Z,46.60
2024-05-09T15:30:33.815Z,46.50
2024-05-09T15:33:06.824Z,46.50
2024-05-09T15:35:35.314Z,46.10
2024-05-09T15:38:03.519Z,46.40
2024-05-09T15:40:37.969Z,46.20
2024-05-09T15:43:08.847Z,45.90
2024-05-09T15:45:37.347Z,45.80
2024-05-09T15:48:05.612Z,45.60
2024-05-09T15:50:38.686Z,45.30
2024-05-09T15:53:13.340Z,44.90
2024-05-09T15:55:44.185Z,44.60
2024-05-09T15:58:11.823Z,44.50
2024-05-09T16:00:42.766Z,44.40
2024-05-09T16:03:13.489Z,44.50
2024-05-09T16:05:48.409Z,44.30
2024-05-09T16:08:17.072Z,44.40
2024-05-09T16:10:45.969Z,44.10
2024-05-09T16:13:16.653Z,44.40
2024-05-09T16:15:44.507Z,44.50
2024-05-09T16:18:12.503Z,44.30
2024-05-09T16:20:41.795Z,44.10
2024-05-09T16:23:10.889Z,44.40
2024-05-09T16:25:39.069Z,44.40
2024-05-09T16:28:09.952Z,44.70
2024-05-09T16:30:41.714Z,44.60
2024-05-09T16:33:09.628Z,44.50
2024-05-09T16:35:40.439Z,44.60
2024-05-09T16:38:07.763Z,44.70
2024-05-09T16:40:39.202Z,44.40
2024-05-09T16:43:10.015Z,44.30
2024-05-09T16:45:39.464Z,44.70
2024-05-09T16:48:08.237Z,44.20
2024-05-09T16:50:36.506Z,44.30
2024-05-09T16:53:05.824Z,44.10
2024-05-09T16:55:34.303Z,44.00
2024-05-09T16:58:02.533Z,44.30
2024-05-09T17:00:39.471Z,43.90
2024-05-09T17:03:14.453Z,43.50
2024-05-09T17:05:43.195Z,43.20
2024-05-09T17:08:10.682Z,42.00
2024-05-09T17:10:37.994Z,41.90
2024-05-09T17:13:07.372Z,41.50
2024-05-09T17:15:37.327Z,41.70
2024-05-09T17:18:11.147Z,41.70
2024-05-09T17:20:38.533Z,41.80
2024-05-09T17:23:15.584Z,41.30
2024-05-09T17:25:43.585Z,41.10
2024-05-09T17:28:11.466Z,41.00
2024-05-09T17:30:45.172Z,40.70
2024-05-09T17:33:13.494Z,40.40
2024-05-09T17:35:41.273Z,39.70
2024-05-09T17:38:09.034Z,39.50
2024-05-09T17:40:41.657Z,39.00
2024-05-09T17:43:16.755Z,38.40
2024-05-09T17:45:44.318Z,38.30
2024-05-09T17:48:12.340Z,38.60
2024-05-09T17:50:41.466Z,39.20
2024-05-09T17:53:11.809Z,39.70
2024-05-09T17:55:40.469Z,40.20
2024-05-09T17:58:26.328Z,40.90
2024-05-09T18:00:55.585Z,41.90
2024-05-09T18:03:23.966Z,42.40
2024-05-09T18:05:54.253Z,42.80
2024-05-09T18:08:24.479Z,43.40
2024-05-09T18:10:54.068Z,44.00
2024-05-09T18:13:26.543Z,44.50
2024-05-09T18:15:54.552Z,45.00
2024-05-09T18:18:26.362Z,45.30
2024-05-09T18:20:56.277Z,45.70
2024-05-09T18:23:33.836Z,46.10
2024-05-09T18:26:01.482Z,46.70
2024-05-09T18:28:32.390Z,46.90
2024-05-09T18:31:01.337Z,47.20
2024-05-09T18:33:31.354Z,47.50
2024-05-09T18:38:53.744Z,47.80
2024-05-09T18:41:31.124Z,48.10
2024-05-09T18:43:59.442Z,48.60
2024-05-09T18:46:27.596Z,48.80
2024-05-09T18:48:55.943Z,49.00
2024-05-09T18:51:26.661Z,49.00
2024-05-09T18:53:55.624Z,48.90
2024-05-09T18:56:27.189Z,49.00
2024-05-09T18:58:57.022Z,48.90
2024-05-09T19:01:31.804Z,49.00
2024-05-09T19:04:01.577Z,49.10
2024-05-09T19:06:29.260Z,49.20
2024-05-09T19:08:56.433Z,49.30
2024-05-09T19:11:35.666Z,49.40
2024-05-09T19:14:04.780Z,49.60
2024-05-09T19:16:32.014Z,49.90
2024-05-09T19:19:02.396Z,50.10
2024-05-09T19:21:29.986Z,50.30
2024-05-09T19:23:57.922Z,50.40
2024-05-09T19:26:25.440Z,50.60
2024-05-09T19:28:53.267Z,50.70
2024-05-09T19:31:20.709Z,50.80
2024-05-09T19:33:48.075Z,51.00
2024-05-09T19:36:15.344Z,51.20
2024-05-09T19:38:42.613Z,51.40
2024-05-09T19:41:10.099Z,51.60
2024-05-09T19:43:37.560Z,51.70
2024-05-09T19:46:05.044Z,51.80
2024-05-09T19:48:32.655Z,51.90
2024-05-09T19:50:59.952Z,52.10
2024-05-09T19:53:27.226Z,52.40
2024-05-09T19:55:55.777Z,52.60
2024-05-09T19:58:23.743Z,52.90
2024-05-09T20:00:51.307Z,53.00
2024-05-09T20:03:21.049Z,53.20
2024-05-09T20:06:09.049Z,53.70
2024-05-09T20:08:36.667Z,54.10
2024-05-09T20:11:04.009Z,54.10
2024-05-09T20:13:31.740Z,54.40
2024-05-09T20:16:01.425Z,54.70
2024-05-09T20:18:29.297Z,54.90
2024-05-09T20:20:56.876Z,54.80
2024-05-09T20:23:25.912Z,55.00
2024-05-09T20:25:53.262Z,55.30
2024-05-09T20:28:20.978Z,55.40
2024-05-09T20:30:48.323Z,55.60
2024-05-09T20:33:15.922Z,55.80
2024-05-09T20:35:46.606Z,55.90
2024-05-09T20:38:13.762Z,56.00
2024-05-09T20:40:41.166Z,56.20
2024-05-09T20:43:10.332Z,56.40
2024-05-09T20:45:39.078Z,56.50
2024-05-09T20:48:07.593Z,56.60
2024-05-09T20:50:39.524Z,56.70
2024-05-09T20:53:11.008Z,56.90
2024-05-09T20:55:39.572Z,57.00
2024-05-09T20:58:07.431Z,57.00
2024-05-09T21:00:39.965Z,57.20
2024-05-09T21:03:11.982Z,57.40
2024-05-09T21:05:40.330Z,57.60
2024-05-09T21:08:08.155Z,57.90
2024-05-09T21:10:36.720Z,58.20
2024-05-09T21:13:05.700Z,58.40
2024-05-09T21:15:33.919Z,58.60
2024-05-09T21:18:01.352Z,58.70
2024-05-09T21:20:33.512Z,58.90
2024-05-09T21:23:02.253Z,58.90
2024-05-09T21:25:29.969Z,59.00
2024-05-09T21:27:57.418Z,59.20
2024-05-09T21:30:36.994Z,59.40
2024-05-09T21:33:09.909Z,59.50
2024-05-09T21:35:38.765Z,59.60
2024-05-09T21:38:07.305Z,59.70
2024-05-09T21:40:36.488Z,59.90
2024-05-09T21:43:05.343Z,60.20
2024-05-09T21:45:33.308Z,60.30
2024-05-09T21:48:03.086Z,60.30
2024-05-09T21:50:37.066Z,60.30
2024-05-09T21:53:07.884Z,60.30
2024-05-09T21:55:35.113Z,60.30
2024-05-09T21:58:02.881Z,60.30
2024-05-09T22:00:38.211Z,60.30
2024-05-09T22:03:10.886Z,60.50
2024-05-09T22:05:42.209Z,60.50
2024-05-09T22:08:09.958Z,60.50
2024-05-09T22:10:37.513Z,60.40
2024-05-09T22:13:08.923Z,60.50
2024-05-09T22:15:38.623Z,60.60
2024-05-09T22:18:11.022Z,60.60
2024-05-09T22:20:45.259Z,60.60
2024-05-09T22:23:13.738Z,60.60
2024-05-09T22:25:41.172Z,60.60
2024-05-09T22:28:08.506Z,60.70
2024-05-09T22:30:39.082Z,60.90
2024-05-09T22:33:10.430Z,60.90
2024-05-09T22:35:39.767Z,61.00
2024-05-09T22:38:07.173Z,61.10
2024-05-09T22:40:45.176Z,61.10
2024-05-09T22:43:24.550Z,61.10
2024-05-09T22:45:56.069Z,61.30
2024-05-09T22:48:24.769Z,61.30
2024-05-09T22:50:53.432Z,61.40
2024-05-09T22:53:25.426Z,61.50
2024-05-09T22:55:52.784Z,61.60
2024-05-09T22:58:20.834Z,61.60
2024-05-09T23:00:48.570Z,61.80
2024-05-09T23:03:16.861Z,61.80
2024-05-09T23:05:44.089Z,61.80
2024-05-09T23:08:11.326Z,61.80
2024-05-09T23:10:38.685Z,61.80
2024-05-09T23:13:07.790Z,61.70
2024-05-09T23:15:37.903Z,61.60
2024-05-09T23:18:05.831Z,61.60
2024-05-09T23:20:38.337Z,61.60
2024-05-09T23:23:12.026Z,61.70
2024-05-09T23:25:41.978Z,61.70
2024-05-09T23:28:10.192Z,61.60
2024-05-09T23:31:15.819Z,61.70
2024-05-09T23:33:47.190Z,61.80
2024-05-09T23:36:14.607Z,62.00
2024-05-09T23:38:42.271Z,62.10
2024-05-09T23:41:12.268Z,62.40
2024-05-09T23:43:42.205Z,62.60
2024-05-09T23:46:11.177Z,62.70
2024-05-09T23:48:38.487Z,62.90
2024-05-09T23:51:05.971Z,62.90
2024-05-09T23:53:33.152Z,63.00
2024-05-09T23:56:00.400Z,63.10
2024-05-09T23:58:28.479Z,63.00
